Time;durP1;ratioP1;P1;durP2;ratioP2;P2;SDS_P1;SDS_P2;PMS_P1;PMS_P2;Temp;Humidity;BMP_temperature;BMP_pressure;BME280_temperature;BME280_humidity;BME280_pressure;Samples;Min_cycle;Max_cycle;Signal;HPM_P1;HPM_P2
2021/07/29 00:01:17;;;;;;;3.17;2.03;;;;;;;19.89;87.14;95620.44;5038798;28;20231;-84
2021/07/29 00:03:43;;;;;;;2.00;1.90;;;;;;;19.90;87.25;95610.78;5037342;28;20229;-84
2021/07/29 00:06:15;;;;;;;2.38;1.90;;;;;;;19.89;87.14;95620.44;5037602;28;20230;-84
2021/07/29 00:08:42;;;;;;;3.53;1.88;;;;;;;19.74;88.06;95612.34;5020385;28;20573;-84
2021/07/29 00:11:09;;;;;;;2.55;2.33;;;;;;;19.71;88.74;95612.00;5017839;28;20242;-83
2021/07/29 00:13:36;;;;;;;4.03;2.45;;;;;;;19.76;87.98;95609.50;5018428;28;20227;-84
2021/07/29 00:16:03;;;;;;;4.50;2.20;;;;;;;19.69;88.51;95614.03;5018672;28;20205;-84
2021/07/29 00:21:16;;;;;;;3.08;2.10;;;;;;;19.79;87.25;95611.63;5017425;28;20206;-84
2021/07/29 00:23:42;;;;;;;3.65;2.17;;;;;;;19.75;86.98;95616.53;5036822;28;20226;-84
2021/07/29 00:26:09;;;;;;;2.50;2.30;;;;;;;19.63;87.96;95613.94;5037703;28;20202;-84
2021/07/29 00:28:36;;;;;;;2.42;1.90;;;;;;;19.55;88.70;95614.31;5037129;28;20230;-84
2021/07/29 00:31:02;;;;;;;2.17;2.08;;;;;;;19.61;88.20;95613.41;5037016;28;20209;-83
2021/07/29 00:33:29;;;;;;;2.10;1.92;;;;;;;19.62;88.14;95614.19;5036833;28;20218;-83
2021/07/29 00:35:55;;;;;;;2.65;2.30;;;;;;;19.55;88.83;95614.31;5037835;28;20201;-83
2021/07/29 00:38:23;;;;;;;2.55;2.17;;;;;;;19.54;89.03;95606.72;5038054;28;20673;-84
2021/07/29 00:40:49;;;;;;;2.70;2.50;;;;;;;19.54;88.73;95599.66;5037125;28;20202;-84
2021/07/29 00:43:16;;;;;;;2.47;2.28;;;;;;;19.46;89.83;95604.41;5036769;28;20225;-84
2021/07/29 00:45:45;;;;;;;2.63;2.42;;;;;;;19.44;89.93;95607.25;5037837;28;20209;-83
2021/07/29 00:48:13;;;;;;;2.50;2.30;;;;;;;19.45;89.92;95611.47;5038901;28;20210;-83
2021/07/29 00:50:39;;;;;;;2.65;2.33;;;;;;;19.51;89.90;95617.63;5033522;28;20221;-82
2021/07/29 00:53:06;;;;;;;3.40;2.42;;;;;;;19.51;90.15;95621.03;5033987;28;20680;-83
2021/07/29 00:55:35;;;;;;;3.38;2.40;;;;;;;19.61;89.12;95617.84;5034239;28;20194;-82
2021/07/29 00:58:01;;;;;;;2.55;2.35;;;;;;;19.59;88.55;95607.63;5035543;28;20206;-83
2021/07/29 01:00:28;;;;;;;3.55;2.50;;;;;;;19.52;89.18;95611.38;5035883;28;20209;-83
2021/07/29 01:02:54;;;;;;;2.58;2.38;;;;;;;19.51;89.06;95607.16;5036639;28;20604;-84
2021/07/29 01:05:21;;;;;;;2.97;2.35;;;;;;;19.50;89.20;95600.34;5036976;28;20229;-83
2021/07/29 01:07:49;;;;;;;3.35;2.47;;;;;;;19.56;88.47;95595.00;5026277;28;20203;-83
2021/07/29 01:10:17;;;;;;;2.70;2.50;;;;;;;19.54;88.20;95585.81;5017008;28;20218;-84
2021/07/29 01:12:45;;;;;;;2.50;2.30;;;;;;;19.38;90.23;95589.13;5017457;28;20214;-83
2021/07/29 01:15:11;;;;;;;4.57;2.60;;;;;;;19.46;89.78;95599.19;5017008;28;20226;-82
2021/07/29 01:17:38;;;;;;;5.00;2.35;;;;;;;19.55;89.20;95601.25;5017254;28;20851;-83
2021/07/29 01:20:05;;;;;;;3.53;2.42;;;;;;;19.46;90.17;95610.44;5015525;28;20195;-82
2021/07/29 01:22:35;;;;;;;3.55;2.42;;;;;;;19.55;88.95;95606.47;5026375;28;20202;-83
2021/07/29 01:25:01;;;;;;;2.40;2.20;;;;;;;19.58;88.46;95610.47;5035079;28;20269;-84
2021/07/29 01:27:31;;;;;;;3.00;2.70;;;;;;;19.63;88.08;95600.09;5033916;28;20217;-83
2021/07/29 01:29:59;;;;;;;3.70;2.30;;;;;;;19.67;87.58;95602.00;5032711;28;20218;-83
2021/07/29 01:32:25;;;;;;;3.35;2.33;;;;;;;19.68;87.50;95597.56;5034384;28;20874;-82
2021/07/29 01:34:52;;;;;;;4.20;2.35;;;;;;;19.63;87.56;95600.09;5033742;28;20284;-82
2021/07/29 01:37:18;;;;;;;2.40;2.20;;;;;;;19.63;87.62;95597.47;5033542;28;20202;-84
2021/07/29 01:39:46;;;;;;;4.72;2.13;;;;;;;19.59;88.16;95601.59;5033798;28;20701;-83
2021/07/29 01:42:12;;;;;;;2.33;2.13;;;;;;;19.62;87.90;95593.31;5034697;28;20209;-83
2021/07/29 01:44:39;;;;;;;2.42;2.20;;;;;;;19.63;87.27;95594.84;5021288;28;20862;-83
2021/07/29 01:47:05;;;;;;;3.28;2.33;;;;;;;19.65;87.35;95604.06;5033475;28;20202;-84
2021/07/29 01:49:31;;;;;;;2.22;2.05;;;;;;;19.65;86.16;95596.22;5033142;28;20223;-83
2021/07/29 01:51:59;;;;;;;2.45;2.17;;;;;;;19.74;85.99;95608.91;5032981;28;20210;-82
2021/07/29 01:54:25;;;;;;;3.08;2.10;;;;;;;19.79;85.70;95601.19;5032961;28;20233;-81
2021/07/29 01:56:53;;;;;;;3.03;2.20;;;;;;;19.74;85.50;95595.84;5033119;28;20202;-83
2021/07/29 01:59:19;;;;;;;3.33;2.30;;;;;;;19.70;85.79;95600.75;5034021;28;20209;-83
2021/07/29 02:01:46;;;;;;;3.28;2.35;;;;;;;19.68;85.97;95600.19;5034709;28;20202;-84
2021/07/29 02:04:12;;;;;;;2.40;2.22;;;;;;;19.64;85.79;95602.47;5034395;28;20222;-84
2021/07/29 02:06:40;;;;;;;2.35;2.15;;;;;;;19.58;86.06;95600.00;5031991;28;20262;-83
2021/07/29 02:09:06;;;;;;;2.10;2.00;;;;;;;19.60;86.02;95605.78;5014002;28;20203;-84
2021/07/29 02:11:35;;;;;;;3.78;2.33;;;;;;;19.63;85.99;95603.50;5013994;28;20199;-83
2021/07/29 02:14:02;;;;;;;3.28;2.40;;;;;;;19.61;86.03;95605.56;5013434;28;20642;-82
2021/07/29 02:16:30;;;;;;;2.17;2.03;;;;;;;19.57;86.97;95606.25;5013574;28;20777;-83
2021/07/29 02:18:56;;;;;;;2.42;2.20;;;;;;;19.57;86.95;95608.88;5013541;28;20588;-83
2021/07/29 02:21:23;;;;;;;2.13;1.98;;;;;;;19.63;86.44;95607.91;5013519;28;20750;-83
2021/07/29 02:23:49;;;;;;;2.63;2.13;;;;;;;19.62;86.34;95604.53;5032788;28;20221;-83
2021/07/29 02:26:15;;;;;;;3.75;2.33;;;;;;;19.60;86.32;95606.59;5033816;28;20252;-83
2021/07/29 02:28:43;;;;;;;2.17;2.08;;;;;;;19.58;86.71;95610.47;5033314;28;20205;-83
2021/07/29 02:31:11;;;;;;;2.53;2.13;;;;;;;19.54;86.45;95601.50;5033263;28;20276;-83
2021/07/29 02:33:37;;;;;;;3.65;2.30;;;;;;;19.51;86.89;95610.56;5032765;28;20218;-83
2021/07/29 02:36:06;;;;;;;2.38;2.17;;;;;;;19.54;86.57;95602.28;5032903;28;20214;-84
2021/07/29 02:38:33;;;;;;;2.40;2.20;;;;;;;19.42;87.05;95608.53;5033075;28;20205;-82
2021/07/29 02:40:59;;;;;;;2.25;2.05;;;;;;;19.45;87.69;95610.66;5035074;28;20198;-83
2021/07/29 02:43:26;;;;;;;5.50;2.20;;;;;;;19.50;87.27;95611.59;5038119;28;20241;-84
2021/07/29 02:45:52;;;;;;;2.33;2.13;;;;;;;19.43;87.24;95605.69;5038688;28;20201;-82
2021/07/29 02:48:20;;;;;;;2.50;1.88;;;;;;;19.38;87.63;95605.59;5037968;28;20599;-83
2021/07/29 02:50:52;;;;;;;4.45;2.20;;;;;;;19.42;87.04;95614.56;5037285;28;20224;-83
2021/07/29 02:53:18;;;;;;;2.67;2.10;;;;;;;19.39;87.71;95616.84;5036771;28;20213;-82
2021/07/29 02:55:45;;;;;;;2.20;2.00;;;;;;;19.46;86.98;95613.06;5037120;28;20206;-84
2021/07/29 02:58:11;;;;;;;2.75;1.90;;;;;;;19.53;86.77;95620.78;5038501;28;20205;-83
2021/07/29 03:00:37;;;;;;;2.67;2.10;;;;;;;19.57;86.24;95620.09;5039167;28;20601;-83
2021/07/29 03:03:04;;;;;;;2.33;2.13;;;;;;;19.62;86.75;95615.00;5039243;28;20206;-83
2021/07/29 03:05:31;;;;;;;2.65;2.08;;;;;;;19.70;86.01;95613.81;5038292;28;20237;-84
2021/07/29 03:07:58;;;;;;;3.67;2.15;;;;;;;19.70;85.52;95613.81;5027566;28;20203;-83
2021/07/29 03:10:24;;;;;;;2.40;2.20;;;;;;;19.69;85.28;95616.66;5019369;28;20229;-84
2021/07/29 03:12:51;;;;;;;2.38;2.10;;;;;;;19.60;85.51;95624.09;5019108;28;20202;-84
2021/07/29 03:15:17;;;;;;;2.28;2.08;;;;;;;19.65;84.59;95613.72;5018814;28;20226;-84
2021/07/29 03:17:44;;;;;;;5.35;2.30;;;;;;;19.64;84.54;95615.53;5017947;28;20261;-84
2021/07/29 03:20:11;;;;;;;1.90;1.80;;;;;;;19.68;82.98;95618.47;5017285;28;20704;-84
2021/07/29 03:22:39;;;;;;;2.20;1.90;;;;;;;19.62;82.64;95624.66;5027624;28;20210;-84
2021/07/29 03:25:06;;;;;;;4.15;2.00;;;;;;;19.62;82.89;95620.22;5036682;28;20316;-84
2021/07/29 03:27:32;;;;;;;2.15;1.95;;;;;;;19.62;82.57;95627.25;5037213;28;20209;-84
2021/07/29 03:29:59;;;;;;;4.10;2.10;;;;;;;19.64;82.99;95625.97;5036045;28;20229;-83
2021/07/29 03:32:25;;;;;;;3.53;2.00;;;;;;;19.70;82.43;95626.88;5037119;28;20268;-84
2021/07/29 03:34:52;;;;;;;2.25;1.92;;;;;;;19.77;81.54;95622.31;5037044;28;20214;-83
2021/07/29 03:37:18;;;;;;;2.75;2.00;;;;;;;19.74;80.42;95625.41;5036416;28;20206;-83
2021/07/29 03:39:46;;;;;;;2.85;1.80;;;;;;;19.73;79.84;95628.22;5035824;28;20202;-84
2021/07/29 03:42:12;;;;;;;2.20;2.00;;;;;;;19.66;80.19;95625.75;5035161;28;20280;-84
2021/07/29 03:44:39;;;;;;;3.22;2.28;;;;;;;19.66;80.34;95615.28;5034908;28;20222;-84
2021/07/29 03:47:05;;;;;;;4.20;2.00;;;;;;;19.66;80.06;95621.31;5035886;28;20206;-84
2021/07/29 03:49:34;;;;;;;2.28;2.15;;;;;;;19.61;79.90;95617.84;5035005;28;20205;-84
2021/07/29 03:52:00;;;;;;;2.03;1.92;;;;;;;19.63;80.54;95615.75;5032539;28;20260;-84
2021/07/29 03:54:27;;;;;;;3.63;2.17;;;;;;;19.71;81.41;95623.25;5032538;28;20229;-85
2021/07/29 03:56:55;;;;;;;2.15;1.95;;;;;;;19.78;80.57;95626.53;5032779;28;20202;-84
2021/07/29 03:59:21;;;;;;;3.53;2.03;;;;;;;19.86;83.07;95626.13;5032198;28;20209;-84
2021/07/29 04:01:48;;;;;;;2.30;2.05;;;;;;;20.01;83.21;95629.00;5032615;28;20202;-84
2021/07/29 04:04:14;;;;;;;2.33;1.95;;;;;;;20.15;81.07;95629.53;5032278;28;20229;-84
2021/07/29 04:06:41;;;;;;;2.10;1.95;;;;;;;20.26;81.05;95628.69;5030821;28;20295;-85
2021/07/29 04:09:07;;;;;;;3.28;2.30;;;;;;;20.34;79.59;95623.06;5012756;28;20203;-84
2021/07/29 04:11:33;;;;;;;2.78;2.08;;;;;;;20.35;77.53;95619.44;5012743;28;20254;-83
2021/07/29 04:14:01;;;;;;;2.13;1.92;;;;;;;20.31;77.14;95620.94;5012627;28;20227;-83
2021/07/29 04:16:29;;;;;;;2.45;2.10;;;;;;;20.32;78.58;95619.09;5012486;28;20622;-84
2021/07/29 04:18:56;;;;;;;5.35;1.95;;;;;;;20.24;77.93;95622.88;5012152;28;20203;-86
2021/07/29 04:21:23;;;;;;;6.43;2.00;;;;;;;20.22;77.79;95621.53;5011831;28;20589;-86
2021/07/29 04:23:49;;;;;;;2.40;1.75;;;;;;;20.14;77.32;95617.50;5031357;28;20232;-86
2021/07/29 04:26:16;;;;;;;2.13;1.80;;;;;;;20.13;77.14;95615.91;5031898;28;20236;-85
2021/07/29 04:28:42;;;;;;;2.00;1.80;;;;;;;20.09;77.86;95630.47;5031683;28;20577;-85
2021/07/29 04:31:10;;;;;;;2.75;1.92;;;;;;;20.08;77.17;95628.09;5033155;28;20738;-84
2021/07/29 04:33:36;;;;;;;3.15;2.40;;;;;;;20.00;77.15;95637.13;5030951;28;20597;-85
2021/07/29 04:36:05;;;;;;;4.47;2.00;;;;;;;20.13;79.17;95622.97;5031547;28;20213;-85
2021/07/29 04:38:32;;;;;;;2.17;1.80;;;;;;;20.24;78.32;95633.34;5030889;28;20198;-85
2021/07/29 04:41:03;;;;;;;3.83;1.85;;;;;;;20.29;76.73;95630.81;5026121;28;20203;-86
2021/07/29 04:43:29;;;;;;;1.75;1.52;;;;;;;20.32;76.77;95622.50;5015321;28;20377;-87
2021/07/29 04:45:56;;;;;;;2.20;2.03;;;;;;;20.28;75.16;95631.06;5020448;28;20210;-86
2021/07/29 04:48:24;;;;;;;2.33;1.88;;;;;;;20.26;76.15;95625.28;5013601;28;20206;-86
2021/07/29 04:50:50;;;;;;;8.05;7.32;;;;;;;20.26;76.73;95631.28;5017125;28;20724;-88
2021/07/29 04:53:16;;;;;;;5.97;4.72;;;;;;;20.21;75.31;95625.97;5031155;28;20717;-88
2021/07/29 04:55:43;;;;;;;2.60;2.40;;;;;;;20.19;75.26;95628.06;5020614;28;20229;-87
2021/07/29 04:58:09;;;;;;;3.22;2.10;;;;;;;20.12;75.49;95623.97;5015109;28;20198;-88
2021/07/29 05:00:36;;;;;;;4.28;2.10;;;;;;;20.15;75.97;95619.09;5014567;28;20202;-88
2021/07/29 05:03:02;;;;;;;2.42;2.20;;;;;;;20.05;76.54;95618.91;5025489;28;20198;-88
2021/07/29 05:05:30;;;;;;;3.25;1.90;;;;;;;20.10;75.74;95611.16;5023132;28;20231;-88
2021/07/29 05:07:56;;;;;;;2.75;1.88;;;;;;;20.08;75.85;95620.25;5025337;28;20298;-88
2021/07/29 05:10:23;;;;;;;2.00;1.85;;;;;;;20.15;75.71;95626.94;5024238;28;20215;-88
2021/07/29 05:12:49;;;;;;;3.58;1.92;;;;;;;20.13;75.35;95625.56;5016607;28;20214;-88
2021/07/29 05:15:15;;;;;;;2.40;2.17;;;;;;;20.19;75.38;95624.66;5027398;28;20222;-88
2021/07/29 05:17:42;;;;;;;2.10;2.00;;;;;;;20.25;74.90;95631.53;5031288;28;20209;-88
2021/07/29 05:20:10;;;;;;;3.88;2.00;;;;;;;20.26;74.88;95636.53;5032824;28;20202;-88
2021/07/29 05:22:40;;;;;;;2.30;2.10;;;;;;;20.27;74.91;95635.50;5024433;28;20207;-88
2021/07/29 05:25:07;;;;;;;2.47;2.00;;;;;;;20.27;74.79;95639.94;5035437;28;20226;-87
2021/07/29 05:27:34;;;;;;;2.40;2.20;;;;;;;20.19;75.53;95629.88;5037305;28;20205;-87
2021/07/29 05:30:00;;;;;;;2.40;1.92;;;;;;;20.17;75.91;95630.09;5035766;28;20209;-87
2021/07/29 05:32:27;;;;;;;4.57;1.95;;;;;;;20.15;76.17;95628.75;5035111;28;20232;-88
2021/07/29 05:34:54;;;;;;;2.42;1.80;;;;;;;20.20;76.03;95621.78;5034544;28;20230;-87
2021/07/29 05:37:20;;;;;;;3.35;2.30;;;;;;;20.28;75.96;95621.41;5036079;28;20210;-86
2021/07/29 05:39:48;;;;;;;2.83;1.90;;;;;;;20.30;75.59;95624.56;5033701;28;20194;-85
2021/07/29 05:42:20;;;;;;;3.10;2.10;;;;;;;20.34;75.16;95624.91;5033227;28;20202;-86
2021/07/29 05:44:46;;;;;;;3.30;1.83;;;;;;;20.34;75.41;95620.47;5032582;28;20226;-86
2021/07/29 05:47:13;;;;;;;2.10;1.90;;;;;;;20.41;75.23;95628.16;5028713;28;20657;-86
2021/07/29 05:49:39;;;;;;;3.70;2.03;;;;;;;20.52;75.01;95623.91;5022864;28;20215;-86
2021/07/29 05:52:06;;;;;;;2.45;2.00;;;;;;;20.58;74.88;95623.75;5028865;28;20296;-85
2021/07/29 05:54:32;;;;;;;3.72;2.25;;;;;;;20.62;74.47;95621.44;5032206;28;20764;-85
2021/07/29 05:57:00;;;;;;;2.35;2.10;;;;;;;20.67;74.39;95632.78;5027922;28;20210;-83
2021/07/29 05:59:58;;;;;;;6.78;2.55;;;;;;;20.79;75.09;95629.28;5030607;28;20793;-84
2021/07/29 06:02:27;;;;;;;1.80;1.70;;;;;;;20.85;73.23;95629.13;5028233;28;20542;-86
2021/07/29 06:04:55;;;;;;;2.05;1.90;;;;;;;20.91;72.56;95640.47;5030891;28;20249;-83
2021/07/29 06:07:24;;;;;;;2.08;1.90;;;;;;;20.98;72.75;95643.69;5026136;28;20202;-84
2021/07/29 06:09:54;;;;;;;4.63;1.85;;;;;;;20.97;72.77;95644.75;5034614;28;20206;-81
2021/07/29 06:12:24;;;;;;;3.05;1.80;;;;;;;21.10;72.80;95646.22;5034125;28;20229;-81
2021/07/29 06:14:54;;;;;;;3.35;1.98;;;;;;;21.05;72.48;95641.72;5034734;28;20218;-83
2021/07/29 06:17:26;;;;;;;2.80;2.00;;;;;;;20.98;72.72;95636.63;5021967;28;20229;-83
2021/07/29 06:19:52;;;;;;;2.65;2.17;;;;;;;20.86;72.97;95643.00;5028058;28;20202;-81
2021/07/29 06:22:19;;;;;;;2.75;2.10;;;;;;;20.89;73.47;95640.72;5017371;28;21583;-81
2021/07/29 06:25:21;;;;;;;;;;;;;;;;;;;;;
2021/07/29 06:28:14;;;;;;;2.08;1.98;;;;;;;21.12;72.15;95646.78;4997661;28;20207;-82
2021/07/29 06:31:02;;;;;;;2.15;2.03;;;;;;;21.17;71.96;95633.75;5018708;28;20222;-83
2021/07/29 06:33:34;;;;;;;3.33;2.30;;;;;;;21.17;72.03;95628.50;5005407;28;20289;-83
2021/07/29 06:36:11;;;;;;;3.28;2.20;;;;;;;21.24;71.99;95632.59;5016517;28;20265;-81
2021/07/29 06:38:44;;;;;;;2.28;1.90;;;;;;;21.34;72.64;95637.97;5033300;28;20201;-81
2021/07/29 06:41:16;;;;;;;2.10;2.00;;;;;;;21.36;73.07;95630.63;5034498;28;20194;-80
2021/07/29 06:43:59;;;;;;;2.30;2.10;;;;;;;21.40;74.27;95628.31;5020895;28;20240;-81
2021/07/29 06:46:26;;;;;;;2.40;2.20;;;;;;;21.48;72.49;95627.13;5022494;28;20281;-83
2021/07/29 06:49:35;;;;;;;2.10;2.00;;;;;;;21.52;71.77;95629.03;5022928;28;20210;-82
2021/07/29 06:52:13;;;;;;;2.38;1.60;;;;;;;21.55;72.02;95635.59;5013846;28;20231;-82
2021/07/29 06:54:46;;;;;;;2.28;2.08;;;;;;;21.54;71.67;95640.06;5025720;28;20669;-83
2021/07/29 06:57:12;;;;;;;2.65;2.10;;;;;;;21.55;72.00;95633.75;5033056;28;20202;-83
2021/07/29 06:59:42;;;;;;;2.45;1.90;;;;;;;21.58;72.00;95642.94;5033289;28;20198;-83
2021/07/29 07:05:59;;;;;;;3.20;2.08;;;;;;;21.83;71.06;95643.25;4951974;28;20228;-84
2021/07/29 07:08:49;;;;;;;6.18;2.65;;;;;;;21.77;72.90;95635.56;4982465;28;20261;-83
2021/07/29 07:11:28;;;;;;;2.22;2.08;;;;;;;21.83;71.25;95632.78;5018563;28;20218;-81
2021/07/29 07:13:55;;;;;;;3.50;2.38;;;;;;;21.81;71.53;95631.44;5032396;28;20241;-82
2021/07/29 07:16:44;;;;;;;2.47;2.17;;;;;;;21.89;71.73;95623.94;5032135;28;20245;-85
2021/07/29 07:19:13;;;;;;;4.65;2.63;;;;;;;21.92;70.93;95638.38;5034031;28;20205;-83
2021/07/29 07:21:41;;;;;;;2.92;2.55;;;;;;;22.04;70.45;95639.06;5034861;28;20194;-82
2021/07/29 07:27:20;;;;;;;3.47;2.70;;;;;;;22.15;68.46;95639.94;5030740;28;20573;-85
2021/07/29 07:30:18;;;;;;;;;;;;;;;;;;;;;
2021/07/29 07:33:01;;;;;;;;;;;;;;;;;;;;;
2021/07/29 07:35:28;;;;;;;8.98;3.20;;;;;;;22.12;65.45;95638.63;5036704;28;20286;-84
2021/07/29 07:37:55;;;;;;;3.85;3.55;;;;;;;22.14;63.93;95633.91;5023490;28;20195;-81
2021/07/29 07:40:21;;;;;;;2.83;2.60;;;;;;;22.27;64.64;95630.91;5036110;28;20208;-84
2021/07/29 07:42:49;;;;;;;3.63;3.08;;;;;;;22.28;64.42;95636.94;5026474;28;20202;-83
2021/07/29 07:45:16;;;;;;;2.80;2.60;;;;;;;22.37;64.47;95638.84;5015651;28;20231;-82
2021/07/29 07:47:43;;;;;;;2.92;2.72;;;;;;;22.32;63.73;95635.41;5019564;28;20581;-81
2021/07/29 07:50:11;;;;;;;3.70;2.60;;;;;;;22.32;62.68;95630.16;5028998;28;20257;-83
2021/07/29 07:52:37;;;;;;;3.22;2.92;;;;;;;22.35;62.79;95635.69;5024514;28;20616;-84
2021/07/29 07:55:04;;;;;;;2.85;2.65;;;;;;;22.44;63.26;95630.00;5015984;28;20222;-85
2021/07/29 07:57:34;;;;;;;2.92;2.45;;;;;;;22.51;63.46;95625.34;5035584;28;20201;-85
2021/07/29 08:00:00;;;;;;;2.80;2.60;;;;;;;22.68;63.45;95626.00;5032397;28;20213;-86
2021/07/29 08:02:29;;;;;;;2.80;2.60;;;;;;;22.71;63.06;95614.97;5027288;28;20194;-83
2021/07/29 08:04:56;;;;;;;2.90;2.70;;;;;;;22.83;63.22;95612.22;5041059;28;20244;-83
2021/07/29 08:07:23;;;;;;;2.83;2.47;;;;;;;23.00;62.13;95621.50;5034181;28;20208;-84
2021/07/29 08:09:56;;;;;;;3.25;2.90;;;;;;;23.11;61.02;95624.19;5033909;28;20211;-80
2021/07/29 08:12:39;;;;;;;3.08;2.63;;;;;;;23.22;59.50;95615.34;5028198;28;20211;-82
2021/07/29 08:15:07;;;;;;;4.10;2.70;;;;;;;23.05;59.95;95618.94;5023284;28;20750;-82
2021/07/29 08:17:36;;;;;;;6.05;2.67;;;;;;;23.05;59.87;95610.25;5014462;28;20214;-83
2021/07/29 08:20:11;;;;;;;3.20;2.95;;;;;;;23.30;59.76;95615.63;5021616;28;20198;-81
2021/07/29 08:22:39;;;;;;;2.53;2.33;;;;;;;23.58;59.46;95613.69;5034809;28;20240;-82
2021/07/29 08:25:09;;;;;;;3.05;2.53;;;;;;;23.75;58.69;95611.63;5033724;28;20214;-85
2021/07/29 08:27:38;;;;;;;3.88;2.40;;;;;;;23.78;58.27;95613.75;5034739;28;20849;-83
2021/07/29 08:30:09;;;;;;;3.78;2.67;;;;;;;23.71;57.84;95598.22;5033818;28;20206;-81
2021/07/29 08:32:38;;;;;;;2.92;2.72;;;;;;;23.88;57.11;95600.63;5025118;28;20214;-82
2021/07/29 08:35:10;;;;;;;3.13;2.80;;;;;;;24.02;56.61;95609.63;5016827;28;20219;-82
2021/07/29 08:37:38;;;;;;;2.88;2.67;;;;;;;24.06;56.72;95597.50;5015702;28;20210;-85
2021/07/29 08:40:17;;;;;;;3.00;2.70;;;;;;;24.10;55.94;95598.56;5014283;28;20274;-84
2021/07/29 08:42:49;;;;;;;2.80;2.60;;;;;;;24.10;55.17;95598.56;5030237;28;20202;-82
2021/07/29 08:45:16;;;;;;;3.00;2.70;;;;;;;24.20;51.89;95594.38;5031647;28;20294;-81
2021/07/29 08:47:47;;;;;;;2.95;2.75;;;;;;;24.41;52.87;95586.28;5014585;28;20210;-83
2021/07/29 08:50:18;;;;;;;5.20;3.10;;;;;;;24.50;52.83;95583.88;5023784;28;20693;-83
2021/07/29 08:52:50;;;;;;;3.17;2.95;;;;;;;24.55;51.68;95588.38;5033790;28;20253;-81
2021/07/29 08:55:19;;;;;;;2.90;2.70;;;;;;;24.68;51.51;95585.19;5034447;28;20314;-84
2021/07/29 08:57:48;;;;;;;3.35;2.70;;;;;;;24.82;50.20;95591.50;5034549;28;20198;-85
2021/07/29 09:00:22;;;;;;;2.78;2.58;;;;;;;24.82;48.29;95596.00;5028840;28;20195;-83
2021/07/29 09:02:48;;;;;;;3.20;2.90;;;;;;;24.89;47.22;95591.22;5020045;28;20223;-83
2021/07/29 09:05:17;;;;;;;3.92;2.72;;;;;;;25.00;47.34;95590.19;5012862;28;20226;-84
2021/07/29 09:07:46;;;;;;;3.33;3.03;;;;;;;25.14;48.98;95591.22;5026599;28;20213;-82
2021/07/29 09:10:23;;;;;;;3.63;2.90;;;;;;;25.23;49.93;95591.44;5017161;28;20209;-85
2021/07/29 09:13:10;;;;;;;3.10;2.88;;;;;;;25.21;48.80;95585.66;5019918;28;20721;-81
2021/07/29 09:15:37;;;;;;;3.00;2.80;;;;;;;25.07;48.23;95594.13;5031201;28;20229;-85
2021/07/29 09:18:05;;;;;;;3.33;3.05;;;;;;;25.23;47.83;95589.59;5023493;28;20201;-84
2021/07/29 09:20:33;;;;;;;3.63;3.20;;;;;;;25.24;47.83;95593.81;5014420;28;20209;-84
2021/07/29 09:23:14;;;;;;;2.92;2.72;;;;;;;25.44;47.73;95587.66;5015517;28;20813;-84
2021/07/29 09:25:41;;;;;;;2.95;2.75;;;;;;;25.58;48.74;95593.16;5013650;28;20209;-84
2021/07/29 09:28:07;;;;;;;3.78;2.72;;;;;;;25.77;49.46;95587.03;5014624;28;20206;-84
2021/07/29 09:30:37;;;;;;;3.47;2.70;;;;;;;25.84;47.18;95589.34;5022809;28;20194;-82
2021/07/29 09:33:05;;;;;;;3.55;3.00;;;;;;;25.98;45.32;95589.56;5033464;28;20228;-83
2021/07/29 09:35:44;;;;;;;3.70;2.97;;;;;;;25.98;45.12;95582.41;5029672;28;20245;-82
2021/07/29 09:38:24;;;;;;;3.20;3.00;;;;;;;26.06;46.53;95586.34;5018839;28;20616;-84
2021/07/29 09:40:54;;;;;;;3.90;3.25;;;;;;;26.17;46.95;95591.25;5025794;28;20203;-82
2021/07/29 09:43:22;;;;;;;3.78;3.47;;;;;;;26.15;45.95;95585.50;5027812;28;20239;-83
2021/07/29 09:45:50;;;;;;;4.05;3.13;;;;;;;26.09;45.59;95585.78;5014287;28;20206;-83
2021/07/29 09:48:18;;;;;;;3.22;3.00;;;;;;;26.10;46.98;95590.00;5015195;28;20298;-84
2021/07/29 09:50:46;;;;;;;3.50;3.20;;;;;;;26.29;44.45;95585.69;5030893;28;20225;-83
2021/07/29 09:53:12;;;;;;;3.20;3.00;;;;;;;26.21;45.00;95586.22;5031879;28;20221;-82
2021/07/29 09:55:41;;;;;;;4.78;3.33;;;;;;;25.94;45.65;95591.94;5032079;28;20222;-84
2021/07/29 09:58:09;;;;;;;3.67;3.20;;;;;;;25.84;46.78;95589.34;5033015;28;20199;-83
2021/07/29 10:00:38;;;;;;;3.70;3.15;;;;;;;25.68;46.67;95583.38;5024472;28;20205;-84
2021/07/29 10:03:08;;;;;;;3.47;3.17;;;;;;;25.60;47.92;95583.91;5012599;28;20289;-83
2021/07/29 10:05:45;;;;;;;3.60;3.30;;;;;;;25.45;48.20;95576.84;5010676;28;20866;-81
2021/07/29 10:08:18;;;;;;;4.25;3.60;;;;;;;25.41;47.13;95572.38;5012849;28;20198;-83
2021/07/29 10:10:49;;;;;;;4.88;3.50;;;;;;;25.72;48.13;95573.88;5011333;28;20593;-81
2021/07/29 10:13:15;;;;;;;3.75;3.20;;;;;;;26.09;47.65;95567.31;5011963;28;20636;-82
2021/07/29 10:15:43;;;;;;;3.55;3.35;;;;;;;26.50;47.98;95565.19;5029563;28;20202;-83
2021/07/29 10:18:10;;;;;;;3.60;3.30;;;;;;;26.60;45.75;95564.28;5033523;28;20206;-81
2021/07/29 10:20:39;;;;;;;3.70;3.40;;;;;;;26.60;45.15;95559.00;5032873;28;20605;-81
2021/07/29 10:23:54;;;;;;;3.70;3.40;;;;;;;26.47;44.99;95568.38;5031515;28;20580;-81
2021/07/29 10:26:22;;;;;;;7.40;3.22;;;;;;;26.33;46.85;95565.59;5032017;28;20206;-83
2021/07/29 10:28:50;;;;;;;3.50;3.20;;;;;;;26.48;47.05;95565.47;5029344;28;20209;-83
2021/07/29 10:31:18;;;;;;;3.40;3.10;;;;;;;26.56;47.05;95560.63;5012712;28;20214;-84
2021/07/29 10:33:46;;;;;;;3.42;2.95;;;;;;;26.76;47.19;95560.44;5010663;28;20226;-81
2021/07/29 10:36:44;;;;;;;4.30;3.50;;;;;;;26.98;45.09;95554.72;5012475;28;20209;-84
2021/07/29 10:39:11;;;;;;;3.75;3.40;;;;;;;27.29;45.96;95553.31;5012220;28;20218;-83
2021/07/29 10:41:47;;;;;;;3.95;3.67;;;;;;;27.42;45.40;95557.13;5012478;28;20294;-83
2021/07/29 10:44:45;;;;;;;4.05;3.75;;;;;;;27.54;43.25;95544.25;5012481;28;20233;-84
2021/07/29 10:47:14;;;;;;;3.67;3.38;;;;;;;27.38;42.91;95548.97;5000524;28;20265;-81
2021/07/29 10:50:19;;;;;;;3.72;3.42;;;;;;;27.11;44.79;95544.28;5027440;28;20260;-84
2021/07/29 10:52:50;;;;;;;4.40;4.00;;;;;;;26.83;44.47;95539.78;4991271;28;20338;-80
2021/07/29 10:55:17;;;;;;;4.28;3.60;;;;;;;26.67;45.23;95543.63;5031342;28;20269;-81
2021/07/29 10:57:59;;;;;;;3.90;3.60;;;;;;;26.66;46.11;95545.50;5031891;28;20217;-83
2021/07/29 11:00:25;;;;;;;3.92;3.53;;;;;;;26.43;45.45;95536.44;5032556;28;20323;-84
2021/07/29 11:02:53;;;;;;;3.83;3.45;;;;;;;26.12;46.49;95530.59;5021033;28;20195;-83
2021/07/29 11:05:26;;;;;;;4.80;3.50;;;;;;;26.13;47.52;95539.31;5020826;28;20244;-84
2021/07/29 11:07:53;;;;;;;3.80;3.50;;;;;;;26.34;47.76;95532.84;5024014;28;20199;-81
2021/07/29 11:10:22;;;;;;;4.00;3.45;;;;;;;26.40;46.90;95523.78;5030098;28;20202;-82
2021/07/29 11:12:49;;;;;;;3.92;3.30;;;;;;;26.61;46.19;95527.03;5022160;28;20310;-83
2021/07/29 11:15:18;;;;;;;4.05;3.35;;;;;;;26.40;47.73;95520.38;5027660;28;20222;-81
2021/07/29 11:17:47;;;;;;;3.80;3.50;;;;;;;26.42;48.98;95521.66;5022725;28;20210;-80
2021/07/29 11:20:13;;;;;;;3.95;3.65;;;;;;;26.39;48.76;95524.84;5030101;28;20251;-84
2021/07/29 11:22:45;;;;;;;3.65;3.35;;;;;;;26.33;48.66;95526.00;5025915;28;20195;-82
2021/07/29 11:25:12;;;;;;;3.80;3.30;;;;;;;26.21;48.80;95520.22;5018710;28;20233;-84
2021/07/29 11:27:40;;;;;;;3.55;3.25;;;;;;;26.61;48.26;95523.59;5032989;28;20616;-82
2021/07/29 11:30:09;;;;;;;4.78;3.40;;;;;;;26.72;48.83;95522.47;5033002;28;20317;-84
2021/07/29 11:32:39;;;;;;;3.72;3.42;;;;;;;26.61;47.75;95518.31;5015630;28;20227;-81
2021/07/29 11:35:07;;;;;;;3.80;3.50;;;;;;;26.43;48.86;95517.97;5014938;28;20292;-84
2021/07/29 11:37:38;;;;;;;4.60;3.75;;;;;;;26.57;49.68;95512.81;5016504;28;20203;-85
2021/07/29 11:40:06;;;;;;;5.22;3.38;;;;;;;26.74;48.53;95507.13;5029550;28;20206;-81
2021/07/29 11:42:39;;;;;;;3.90;3.50;;;;;;;26.53;48.91;95505.75;5034370;28;20202;-82
2021/07/29 11:45:21;;;;;;;4.68;3.65;;;;;;;26.64;48.38;95507.22;5024241;28;20223;-80
2021/07/29 11:47:49;;;;;;;3.80;3.50;;;;;;;26.49;48.55;95505.50;5022311;28;20229;-83
2021/07/29 11:50:15;;;;;;;3.75;3.45;;;;;;;26.25;47.23;95510.69;5014764;28;20207;-83
2021/07/29 11:52:52;;;;;;;3.58;3.38;;;;;;;26.05;46.88;95510.84;5015355;28;20362;-84
2021/07/29 11:55:20;;;;;;;3.60;3.30;;;;;;;26.07;46.86;95503.47;5032350;28;20286;-81
2021/07/29 11:57:47;;;;;;;4.10;3.58;;;;;;;26.34;46.09;95498.53;5015852;28;20195;-84